Derby, Maine
Current Conditions -  °F | °C
As of 4:46 PM on Wednesday 17 Dec 2014 (Local Time) from KMLT Reporting Station
Light Snow Light Snow  
Wind Chill: 29°   Ceiling: 3000
Heat Index: 34°   Visibility: 4mi
Dew Point: 32°   Wind: 6mph
Humidity: 92%   Direction: 20°NNE
Pressure: 29.76"   Gusts: NA
Location:  45.4158°N, 68.8178°W
Report Text: KMLT 172146Z AUTO 02005KT 4SM -SN BR SCT006 OVC030 01/00 A2976 RMK AO2 P0007 T00110000
Loading
Personal Weather Stations






























Interactive Weather Map New forecast layout! Learn more

10-Day Weather Forecast

Advertisements
Track Severe Weather on mobile